Time;durP1;ratioP1;P1;durP2;ratioP2;P2;SDS_P1;SDS_P2;PMS_P1;PMS_P2;Temp;Humidity;BMP_temperature;BMP_pressure;BME280_temperature;BME280_humidity;BME280_pressure;Samples;Min_cycle;Max_cycle;Signal;HPM_P1;HPM_P2
2022/02/13 00:00:15;;;;;;;6.65;4.30;;;-1.90;99.90;;;;;;5090261;28;20362;-51
2022/02/13 00:02:42;;;;;;;9.25;4.55;;;-1.90;99.90;;;;;;5057607;28;20039;-51
2022/02/13 00:05:08;;;;;;;9.88;5.18;;;-1.80;99.90;;;;;;5058095;28;20041;-51
2022/02/13 00:07:35;;;;;;;6.50;4.82;;;-1.90;99.90;;;;;;5057999;28;20051;-51
2022/02/13 00:10:02;;;;;;;9.15;5.20;;;-1.80;99.90;;;;;;5057242;28;20048;-51
2022/02/13 00:12:27;;;;;;;6.57;4.13;;;-1.90;99.90;;;;;;5057373;28;20028;-51
2022/02/13 00:14:56;;;;;;;6.32;4.57;;;-1.90;99.90;;;;;;5059433;28;20028;-51
2022/02/13 00:17:23;;;;;;;10.00;5.70;;;-1.90;99.90;;;;;;5060319;28;20025;-51
2022/02/13 00:19:49;;;;;;;7.65;4.22;;;-1.90;99.90;;;;;;5059629;28;20024;-51
2022/02/13 00:22:17;;;;;;;10.77;4.82;;;-2.00;99.90;;;;;;5059619;28;20029;-51
2022/02/13 00:24:43;;;;;;;8.90;5.10;;;-2.00;99.90;;;;;;5061689;28;20033;-51
2022/02/13 00:27:10;;;;;;;7.45;5.50;;;-2.00;99.90;;;;;;5063382;28;20115;-51
2022/02/13 00:29:35;;;;;;;11.93;5.53;;;-2.00;99.90;;;;;;5061005;28;20028;-51
2022/02/13 00:32:02;;;;;;;6.32;5.38;;;-2.10;99.90;;;;;;5061815;28;20037;-51
2022/02/13 00:34:28;;;;;;;8.70;5.50;;;-2.20;99.90;;;;;;5059313;28;20040;-52
2022/02/13 00:36:53;;;;;;;11.20;5.10;;;-2.20;99.90;;;;;;5060294;28;20033;-51
2022/02/13 00:39:19;;;;;;;11.27;5.53;;;-2.10;99.90;;;;;;5059097;28;20032;-51
2022/02/13 00:41:44;;;;;;;13.15;5.22;;;-2.10;99.90;;;;;;5059808;28;20051;-51
2022/02/13 00:44:10;;;;;;;6.40;5.53;;;-2.10;99.90;;;;;;5062043;28;20062;-51
2022/02/13 00:46:36;;;;;;;4.97;4.55;;;-2.00;99.90;;;;;;5060274;28;20052;-51
2022/02/13 00:49:02;;;;;;;7.43;4.70;;;-2.00;99.90;;;;;;5060369;28;20158;-51
2022/02/13 00:51:27;;;;;;;6.70;4.18;;;-2.00;99.90;;;;;;5061884;28;20105;-51
2022/02/13 00:53:53;;;;;;;8.45;3.80;;;-2.00;99.90;;;;;;5062157;28;20044;-51
2022/02/13 00:56:20;;;;;;;4.70;3.88;;;-2.00;99.90;;;;;;5063335;28;20035;-50
2022/02/13 00:58:46;;;;;;;5.95;3.92;;;-2.00;99.90;;;;;;5059878;28;20033;-51
2022/02/13 01:01:12;;;;;;;7.30;4.55;;;-2.00;99.90;;;;;;5060556;28;20033;-51
2022/02/13 01:03:37;;;;;;;7.68;4.57;;;-2.10;99.90;;;;;;5066601;28;20025;-51
2022/02/13 01:06:03;;;;;;;4.72;3.72;;;-2.20;99.90;;;;;;5067967;28;20044;-51
2022/02/13 01:08:29;;;;;;;8.30;5.20;;;-2.20;99.90;;;;;;5070162;28;20021;-51
2022/02/13 01:10:55;;;;;;;4.72;4.32;;;-2.20;99.90;;;;;;5065088;28;20040;-51
2022/02/13 01:13:21;;;;;;;5.38;4.05;;;-2.20;99.90;;;;;;5064063;28;20021;-51
2022/02/13 01:15:47;;;;;;;4.80;4.35;;;-2.30;99.90;;;;;;5062123;28;20032;-51
2022/02/13 01:18:13;;;;;;;7.35;4.07;;;-2.20;99.90;;;;;;5059891;28;20059;-50
2022/02/13 01:20:39;;;;;;;4.35;3.42;;;-2.20;99.90;;;;;;5063037;28;20579;-51
2022/02/13 01:23:05;;;;;;;3.53;3.22;;;-2.30;99.90;;;;;;5062603;28;20021;-51
2022/02/13 01:25:30;;;;;;;3.10;2.83;;;-2.30;99.90;;;;;;5062414;28;20101;-51
2022/02/13 01:27:56;;;;;;;3.15;2.83;;;-2.30;99.90;;;;;;5062568;28;20032;-51
2022/02/13 01:30:22;;;;;;;3.10;2.80;;;-2.30;99.90;;;;;;5060898;28;20124;-50
2022/02/13 01:32:47;;;;;;;4.57;3.20;;;-2.30;99.90;;;;;;5061209;28;20043;-51
2022/02/13 01:35:16;;;;;;;2.97;2.67;;;-2.30;99.90;;;;;;5063239;28;20049;-51
2022/02/13 01:37:41;;;;;;;4.53;2.90;;;-2.40;99.90;;;;;;5067521;28;20022;-51
2022/02/13 01:40:08;;;;;;;4.10;2.40;;;-2.50;99.90;;;;;;5062225;28;20047;-51
2022/02/13 01:42:34;;;;;;;3.25;2.58;;;-2.60;99.90;;;;;;5061618;28;20033;-52
2022/02/13 01:44:59;;;;;;;2.35;2.15;;;-2.60;99.90;;;;;;5063003;28;20110;-51
2022/02/13 01:47:29;;;;;;;2.35;2.25;;;-2.50;99.90;;;;;;5063036;28;20037;-51
2022/02/13 01:49:57;;;;;;;3.33;3.10;;;-2.50;99.90;;;;;;5061049;28;20057;-51
2022/02/13 01:52:23;;;;;;;3.20;2.78;;;-2.50;99.90;;;;;;5062404;28;20621;-51
2022/02/13 01:54:49;;;;;;;3.40;2.83;;;-2.50;99.90;;;;;;5062341;28;20047;-51
2022/02/13 01:57:14;;;;;;;6.47;3.13;;;-2.50;99.90;;;;;;5062511;28;20064;-51
2022/02/13 01:59:40;;;;;;;5.07;3.88;;;-2.50;99.90;;;;;;5063113;28;20033;-51
2022/02/13 02:02:06;;;;;;;7.78;4.15;;;-2.50;99.90;;;;;;5063555;28;20040;-53
2022/02/13 02:04:32;;;;;;;5.10;3.92;;;-2.50;99.90;;;;;;5092479;28;20029;-51
2022/02/13 02:07:00;;;;;;;5.72;4.30;;;-2.50;99.90;;;;;;5061346;28;20044;-51
2022/02/13 02:09:26;;;;;;;3.85;2.90;;;-2.50;99.90;;;;;;5061854;28;20067;-51
2022/02/13 02:11:53;;;;;;;4.55;4.15;;;-2.40;99.90;;;;;;5061818;28;20051;-52
2022/02/13 02:14:21;;;;;;;4.05;3.20;;;-2.40;99.90;;;;;;5061964;28;20029;-51
2022/02/13 02:16:47;;;;;;;;;;;-2.50;99.90;;;;;;5061239;28;20047;-51
2022/02/13 02:19:12;;;;;;;;;;;-2.40;99.90;;;;;;5059899;28;20220;-51
2022/02/13 02:21:41;;;;;;;;;;;-2.40;99.90;;;;;;5061881;28;19912;-51
2022/02/13 02:24:10;;;;;;;;;;;-2.40;99.90;;;;;;5060978;28;19917;-51
2022/02/13 02:26:36;;;;;;;;;;;-2.40;99.90;;;;;;5058946;28;19920;-51
2022/02/13 02:29:01;;;;;;;;;;;-2.40;99.90;;;;;;5059195;28;19943;-51
2022/02/13 02:31:27;;;;;;;;;;;-2.40;99.90;;;;;;5057702;28;19913;-52
2022/02/13 02:33:52;;;;;;;;;;;-2.40;99.90;;;;;;5061286;28;19919;-51
2022/02/13 02:36:19;;;;;;;;;;;-2.40;99.90;;;;;;5059661;28;19897;-51
2022/02/13 02:38:45;;;;;;;;;;;-2.40;99.90;;;;;;5058518;28;19924;-51
2022/02/13 02:41:11;;;;;;;;;;;-2.40;99.90;;;;;;5060482;28;19979;-51
2022/02/13 02:43:37;;;;;;;;;;;-2.40;99.90;;;;;;5059515;28;19913;-51
2022/02/13 02:46:02;;;;;;;;;;;-2.30;99.90;;;;;;5059922;28;19951;-51
2022/02/13 02:48:28;;;;;;;;;;;-2.40;99.90;;;;;;5060539;28;19916;-51
2022/02/13 02:50:53;;;;;;;;;;;-2.30;99.90;;;;;;5062168;28;19987;-51
2022/02/13 02:53:19;;;;;;;;;;;-2.30;99.90;;;;;;5064408;28;19920;-51
2022/02/13 02:55:44;;;;;;;;;;;-2.30;99.90;;;;;;5064904;28;19916;-51
2022/02/13 02:58:10;;;;;;;;;;;-2.30;99.90;;;;;;5068516;28;19935;-51
2022/02/13 03:00:35;;;;;;;;;;;-2.30;99.90;;;;;;5064400;28;19919;-51
2022/02/13 03:03:01;;;;;;;;;;;-2.30;99.90;;;;;;5065717;28;19947;-51
2022/02/13 03:05:27;;;;;;;;;;;-2.30;99.90;;;;;;5063171;28;19912;-50
2022/02/13 03:07:52;;;;;;;;;;;-2.60;99.90;;;;;;5063415;28;19976;-51
2022/02/13 03:10:18;;;;;;;;;;;-2.70;99.90;;;;;;5065497;28;20011;-51
2022/02/13 03:12:43;;;;;;;;;;;-2.60;99.90;;;;;;5064700;28;20007;-51
2022/02/13 03:15:09;;;;;;;;;;;-2.60;99.90;;;;;;5064253;28;19908;-51
2022/02/13 03:17:34;;;;;;;;;;;-2.60;99.90;;;;;;5063703;28;19948;-52
2022/02/13 03:20:01;;;;;;;;;;;-2.60;99.90;;;;;;5062809;28;19916;-51
2022/02/13 03:22:26;;;;;;;;;;;-2.60;99.90;;;;;;5064591;28;19920;-51
2022/02/13 03:24:58;;;;;;;;;;;-2.70;99.90;;;;;;5063578;28;19909;-51
2022/02/13 03:27:24;;;;;;;;;;;-2.80;99.90;;;;;;5067031;28;19916;-51
2022/02/13 03:29:50;;;;;;;;;;;-2.80;99.90;;;;;;5063472;28;19931;-51
2022/02/13 03:32:15;;;;;;;;;;;-2.80;99.90;;;;;;5062491;28;19921;-52
2022/02/13 03:34:41;;;;;;;;;;;-2.90;99.90;;;;;;5065311;28;19962;-51
2022/02/13 03:37:06;;;;;;;;;;;-2.90;99.90;;;;;;5063948;28;20375;-51
2022/02/13 03:39:32;;;;;;;;;;;-2.90;99.90;;;;;;5066290;28;19989;-51
2022/02/13 03:41:57;;;;;;;;;;;-2.90;99.90;;;;;;5065936;28;19931;-51
2022/02/13 03:44:23;;;;;;;;;;;-2.90;99.90;;;;;;5065173;28;19916;-51
2022/02/13 03:46:50;;;;;;;;;;;-2.80;99.90;;;;;;5067355;28;19912;-52
2022/02/13 03:49:16;;;;;;;;;;;-2.80;99.90;;;;;;5064331;28;19923;-51
2022/02/13 03:51:42;;;;;;;;;;;-2.80;99.90;;;;;;5067570;28;20011;-51
2022/02/13 03:54:07;;;;;;;;;;;-2.80;99.90;;;;;;5065112;28;19920;-51
2022/02/13 03:56:33;;;;;;;;;;;-2.80;99.90;;;;;;5064316;28;19924;-51
2022/02/13 03:58:58;;;;;;;;;;;-2.70;99.90;;;;;;5064551;28;19913;-51
2022/02/13 04:01:24;;;;;;;;;;;-2.70;99.90;;;;;;5064721;28;19921;-51
2022/02/13 04:03:49;;;;;;;;;;;-2.70;99.90;;;;;;5065222;28;19917;-51
2022/02/13 04:06:15;;;;;;;;;;;-2.70;99.90;;;;;;5064823;28;19913;-51
2022/02/13 04:08:41;;;;;;;;;;;-2.70;99.90;;;;;;5064206;28;19909;-51
2022/02/13 04:11:06;;;;;;;;;;;-2.70;99.90;;;;;;5066120;28;19959;-51
2022/02/13 04:13:32;;;;;;;;;;;-2.70;99.90;;;;;;5064754;28;19917;-51
2022/02/13 04:15:57;;;;;;;;;;;-2.70;99.90;;;;;;5066446;28;19913;-51
2022/02/13 04:18:23;;;;;;;;;;;-2.80;99.90;;;;;;5065486;28;20462;-51
2022/02/13 04:20:48;;;;;;;;;;;-2.90;99.90;;;;;;5063786;28;19917;-51
2022/02/13 04:23:14;;;;;;;;;;;-2.90;99.90;;;;;;5065981;28;19913;-51
2022/02/13 04:25:40;;;;;;;;;;;-2.90;99.90;;;;;;5064723;28;19909;-51
2022/02/13 04:28:05;;;;;;;;;;;-3.00;99.90;;;;;;5096144;28;19958;-52
2022/02/13 04:30:31;;;;;;;;;;;-3.00;99.90;;;;;;5066241;28;20032;-51
2022/02/13 04:32:57;;;;;;;;;;;-3.10;99.90;;;;;;5064336;28;19980;-51
2022/02/13 04:35:23;;;;;;;;;;;-3.10;99.90;;;;;;5064077;28;19908;-51
2022/02/13 04:37:52;;;;;;;;;;;-3.10;99.90;;;;;;5066161;28;19916;-51
2022/02/13 04:40:18;;;;;;;;;;;-3.10;99.90;;;;;;5065447;28;19976;-51
2022/02/13 04:42:43;;;;;;;;;;;-3.10;99.90;;;;;;5063448;28;19917;-51
2022/02/13 04:45:09;;;;;;;;;;;-3.10;99.90;;;;;;5064259;28;20007;-51
2022/02/13 04:47:34;;;;;;;;;;;-3.10;99.90;;;;;;5065842;28;19916;-52
2022/02/13 04:50:00;;;;;;;;;;;-3.00;99.90;;;;;;5066108;28;19916;-51
2022/02/13 04:52:25;;;;;;;;;;;-3.00;99.90;;;;;;5068220;28;19916;-51
2022/02/13 04:54:51;;;;;;;;;;;-3.00;99.90;;;;;;5067202;28;19912;-51
2022/02/13 04:57:16;;;;;;;;;;;-3.00;99.90;;;;;;5065929;28;19909;-51
2022/02/13 04:59:42;;;;;;;;;;;-2.90;99.90;;;;;;5066637;28;19976;-51
2022/02/13 05:02:08;;;;;;;;;;;-3.00;99.90;;;;;;5066919;28;19924;-51
2022/02/13 05:04:33;;;;;;;;;;;-3.10;99.90;;;;;;5067807;28;19919;-51
2022/02/13 05:06:59;;;;;;;;;;;-3.10;99.90;;;;;;5065663;28;19924;-51
2022/02/13 05:09:25;;;;;;;;;;;-3.10;99.90;;;;;;5066085;28;19921;-51
2022/02/13 05:11:50;;;;;;;;;;;-3.10;99.90;;;;;;5066070;28;20265;-51
2022/02/13 05:14:16;;;;;;;;;;;-3.20;99.90;;;;;;5065931;28;19909;-51
2022/02/13 05:16:41;;;;;;;;;;;-3.20;99.90;;;;;;5066415;28;19908;-51
2022/02/13 05:19:07;;;;;;;;;;;-3.30;99.90;;;;;;5067041;28;19912;-51
2022/02/13 05:21:33;;;;;;;;;;;-3.30;99.90;;;;;;5067493;28;19924;-51
2022/02/13 05:23:58;;;;;;;;;;;-3.30;99.90;;;;;;5067821;28;19896;-51
2022/02/13 05:26:24;;;;;;;;;;;-3.30;99.90;;;;;;5067308;28;20444;-51
2022/02/13 05:28:52;;;;;;;;;;;-3.20;99.90;;;;;;5067609;28;19909;-51
2022/02/13 05:31:17;;;;;;;;;;;-3.30;99.90;;;;;;5067620;28;20364;-51
2022/02/13 05:33:43;;;;;;;;;;;-3.30;99.90;;;;;;5067047;28;19995;-51
2022/02/13 05:36:08;;;;;;;;;;;-3.20;99.90;;;;;;5067124;28;19909;-51
2022/02/13 05:38:34;;;;;;;;;;;-3.10;99.90;;;;;;5067153;28;19935;-51
2022/02/13 05:41:00;;;;;;;;;;;-3.10;99.90;;;;;;5067480;28;20004;-51
2022/02/13 05:43:28;;;;;;;;;;;-3.10;99.90;;;;;;5067063;28;19916;-51
2022/02/13 05:45:54;;;;;;;;;;;-3.10;99.90;;;;;;5065867;28;19968;-51
2022/02/13 05:48:19;;;;;;;;;;;-3.10;99.90;;;;;;5066400;28;19963;-51
2022/02/13 05:50:45;;;;;;;;;;;-3.20;99.90;;;;;;5065521;28;19917;-51
2022/02/13 05:53:10;;;;;;;;;;;-3.20;99.90;;;;;;5066419;28;19935;-51
2022/02/13 05:55:36;;;;;;;;;;;-3.20;99.90;;;;;;5069266;28;19972;-51
2022/02/13 05:58:02;;;;;;;;;;;-3.20;99.90;;;;;;5066994;28;19912;-51
2022/02/13 06:00:27;;;;;;;;;;;-3.20;99.90;;;;;;5067086;28;19912;-51
2022/02/13 06:02:53;;;;;;;;;;;-3.20;99.90;;;;;;5065604;28;19944;-51
2022/02/13 06:05:18;;;;;;;;;;;-3.20;99.90;;;;;;5067549;28;19935;-52
2022/02/13 06:07:44;;;;;;;;;;;-3.20;99.90;;;;;;5068066;28;19908;-51
2022/02/13 06:10:10;;;;;;;;;;;-3.20;99.90;;;;;;5068203;28;19920;-51
2022/02/13 06:12:36;;;;;;;;;;;-3.10;99.90;;;;;;5067154;28;19916;-51
2022/02/13 06:15:02;;;;;;;;;;;-3.10;99.90;;;;;;5068224;28;19916;-51
2022/02/13 06:17:27;;;;;;;;;;;-3.20;99.90;;;;;;5067938;28;19924;-53
2022/02/13 06:19:53;;;;;;;;;;;-3.20;99.90;;;;;;5067406;28;19999;-51
2022/02/13 06:22:18;;;;;;;;;;;-3.10;99.90;;;;;;5068166;28;19908;-51
2022/02/13 06:24:44;;;;;;;;;;;-3.20;99.90;;;;;;5067858;28;19908;-51
2022/02/13 06:27:10;;;;;;;;;;;-3.20;99.90;;;;;;5071720;28;19916;-51
2022/02/13 06:29:36;;;;;;;;;;;-3.20;99.90;;;;;;5070864;28;19913;-51
2022/02/13 06:32:01;;;;;;;;;;;-3.30;99.90;;;;;;5071472;28;19923;-51
2022/02/13 06:34:27;;;;;;;;;;;-3.50;99.90;;;;;;5070819;28;19940;-52
2022/02/13 06:36:52;;;;;;;;;;;-3.50;99.90;;;;;;5070044;28;20403;-51
2022/02/13 06:39:18;;;;;;;;;;;-3.50;99.90;;;;;;5071784;28;19913;-52
2022/02/13 06:41:44;;;;;;;;;;;-3.40;99.90;;;;;;5068964;28;20027;-51
2022/02/13 06:44:09;;;;;;;;;;;-3.40;99.90;;;;;;5073413;28;19931;-51
2022/02/13 06:46:35;;;;;;;;;;;-3.50;99.90;;;;;;5071065;28;19920;-51
2022/02/13 06:49:00;;;;;;;;;;;-3.40;99.90;;;;;;5073700;28;19917;-51
2022/02/13 06:51:26;;;;;;;;;;;-3.30;99.90;;;;;;5071622;28;19920;-51
2022/02/13 06:53:51;;;;;;;;;;;-3.30;99.90;;;;;;5071357;28;20449;-51
2022/02/13 06:56:17;;;;;;;;;;;-3.30;99.90;;;;;;5071022;28;19964;-51
2022/02/13 06:58:42;;;;;;;;;;;-3.30;99.90;;;;;;5074369;28;19893;-51
2022/02/13 07:01:11;;;;;;;;;;;-3.30;99.90;;;;;;5075499;28;19913;-51
2022/02/13 07:03:37;;;;;;;;;;;-3.20;99.90;;;;;;5074800;28;19909;-51
2022/02/13 07:06:07;;;;;;;;;;;-3.20;99.90;;;;;;5071539;28;19912;-51
2022/02/13 07:08:33;;;;;;;;;;;-3.30;99.90;;;;;;5071377;28;19908;-51
2022/02/13 07:10:58;;;;;;;;;;;-3.30;99.90;;;;;;5071711;28;19917;-51
2022/02/13 07:13:24;;;;;;;;;;;-3.30;99.90;;;;;;5072619;28;19909;-51
2022/02/13 07:15:49;;;;;;;;;;;-3.30;99.90;;;;;;5070693;28;19908;-51
2022/02/13 07:18:15;;;;;;;;;;;-3.30;99.90;;;;;;5072406;28;19916;-51
2022/02/13 07:20:41;;;;;;;;;;;-3.30;99.90;;;;;;5071791;28;19904;-51
2022/02/13 07:23:06;;;;;;;;;;;-3.20;99.90;;;;;;5068736;28;19976;-51
2022/02/13 07:25:32;;;;;;;;;;;-3.20;99.90;;;;;;5075005;28;19900;-51
2022/02/13 07:27:57;;;;;;;;;;;-3.20;99.90;;;;;;5076698;28;19972;-51
2022/02/13 07:30:23;;;;;;;;;;;-3.10;99.90;;;;;;5076645;28;19909;-51
2022/02/13 07:32:48;;;;;;;;;;;-3.10;99.90;;;;;;5075001;28;19916;-52
2022/02/13 07:35:15;;;;;;;;;;;-3.10;99.90;;;;;;5075280;28;19900;-51
2022/02/13 07:37:41;;;;;;;;;;;-3.00;99.90;;;;;;5074358;28;19940;-51
2022/02/13 07:40:07;;;;;;;;;;;-3.00;99.90;;;;;;5108707;28;19908;-51
2022/02/13 07:42:32;;;;;;;;;;;-3.00;99.90;;;;;;5077176;28;19923;-51
2022/02/13 07:44:58;;;;;;;;;;;-2.90;99.90;;;;;;5081696;28;19908;-51
2022/02/13 07:47:24;;;;;;;;;;;-2.90;99.90;;;;;;5076250;28;19909;-51
2022/02/13 07:49:50;;;;;;;;;;;-2.80;99.90;;;;;;5077445;28;19913;-51
2022/02/13 07:52:15;;;;;;;;;;;-2.80;99.90;;;;;;5077007;28;19915;-51
2022/02/13 07:54:41;;;;;;;;;;;-2.70;99.90;;;;;;5077169;28;19916;-51
2022/02/13 07:57:06;;;;;;;;;;;-2.70;99.90;;;;;;5077329;28;19935;-51
2022/02/13 07:59:32;;;;;;;;;;;-2.60;99.90;;;;;;5076910;28;19972;-51
2022/02/13 08:02:00;;;;;;;;;;;-2.50;99.90;;;;;;5077234;28;19920;-51
2022/02/13 08:04:26;;;;;;;;;;;-2.50;99.90;;;;;;5093492;28;19909;-51
2022/02/13 08:06:51;;;;;;;;;;;-2.40;99.90;;;;;;5076572;28;19916;-51
2022/02/13 08:09:17;;;;;;;;;;;-2.40;99.90;;;;;;5072785;28;19924;-51
2022/02/13 08:11:42;;;;;;;;;;;-2.40;99.90;;;;;;5076869;28;19913;-51
2022/02/13 08:14:08;;;;;;;;;;;-2.30;99.90;;;;;;5074013;28;19919;-51
2022/02/13 08:16:33;;;;;;;;;;;-2.20;99.90;;;;;;5082277;28;19919;-51
2022/02/13 08:18:59;;;;;;;;;;;-2.20;99.90;;;;;;5077221;28;19931;-51
2022/02/13 08:21:24;;;;;;;;;;;-2.10;99.90;;;;;;5073792;28;19928;-53
2022/02/13 08:23:50;;;;;;;;;;;-2.00;99.90;;;;;;5078232;28;19935;-51
2022/02/13 08:26:16;;;;;;;;;;;-2.00;99.90;;;;;;5092709;28;19920;-51
2022/02/13 08:28:42;;;;;;;;;;;-1.90;99.90;;;;;;5104906;28;19909;-51
2022/02/13 08:31:07;;;;;;;;;;;-1.80;99.90;;;;;;5074566;28;19917;-51
2022/02/13 08:33:33;;;;;;;;;;;-1.70;99.90;;;;;;5076895;28;19983;-51
2022/02/13 08:35:58;;;;;;;;;;;-1.60;99.90;;;;;;5078814;28;19935;-51
2022/02/13 08:38:24;;;;;;;;;;;-1.50;99.90;;;;;;5078103;28;19916;-51
2022/02/13 08:40:50;;;;;;;;;;;-1.40;99.90;;;;;;5079213;28;19905;-51
2022/02/13 08:43:16;;;;;;;;;;;-1.30;99.90;;;;;;5079233;28;19931;-51
2022/02/13 08:45:42;;;;;;;;;;;-1.20;99.90;;;;;;5076888;28;19901;-52
2022/02/13 08:48:07;;;;;;;;;;;-1.10;99.90;;;;;;5079333;28;19958;-51
2022/02/13 08:50:33;;;;;;;;;;;-1.00;99.90;;;;;;5056368;22;19925;-77
2022/02/13 08:52:59;;;;;;;;;;;-0.90;99.90;;;;;;4998125;28;19914;-76
2022/02/13 08:55:24;;;;;;;;;;;-0.70;99.90;;;;;;5000076;28;20013;-75
2022/02/13 08:57:50;;;;;;;;;;;-0.60;99.90;;;;;;4999559;28;20442;-76
2022/02/13 09:00:16;;;;;;;;;;;-0.40;99.90;;;;;;4998879;28;19924;-76
2022/02/13 09:02:42;;;;;;;;;;;-0.20;99.90;;;;;;5013566;28;19932;-76
2022/02/13 09:05:08;;;;;;;;;;;0.00;99.90;;;;;;4997190;28;19918;-75
2022/02/13 09:07:35;;;;;;;;;;;0.10;99.90;;;;;;4998181;28;20009;-76
2022/02/13 09:10:02;;;;;;;;;;;0.20;99.90;;;;;;4997200;28;19925;-76
2022/02/13 09:12:29;;;;;;;;;;;0.40;99.90;;;;;;5001280;28;20039;-76
2022/02/13 09:14:55;;;;;;;;;;;0.50;99.90;;;;;;5001435;28;21540;-76
2022/02/13 09:17:20;;;;;;;;;;;0.70;99.90;;;;;;4995631;28;19917;-76
2022/02/13 09:19:46;;;;;;;;;;;0.80;99.90;;;;;;4997300;28;20558;-76
2022/02/13 09:22:12;;;;;;;;;;;1.10;99.90;;;;;;4999050;28;19935;-76
2022/02/13 09:24:37;;;;;;;;;;;1.20;99.90;;;;;;4997118;28;19925;-74
2022/02/13 09:27:03;;;;;;;;;;;1.40;99.90;;;;;;4999078;28;20359;-76
2022/02/13 09:29:28;;;;;;;;;;;1.60;99.90;;;;;;4998837;28;20335;-77
2022/02/13 09:31:54;;;;;;;;;;;1.80;99.90;;;;;;5000411;28;20298;-75
2022/02/13 09:34:25;;;;;;;;;;;2.00;99.90;;;;;;4996534;28;20092;-76
2022/02/13 09:36:51;;;;;;;;;;;2.20;99.90;;;;;;5000616;28;20378;-76
2022/02/13 09:39:17;;;;;;;;;;;2.50;99.90;;;;;;4999171;28;20008;-76
2022/02/13 09:41:43;;;;;;;;;;;2.60;99.90;;;;;;4998451;28;20016;-77
2022/02/13 09:44:09;;;;;;;;;;;2.80;99.90;;;;;;4996880;28;19917;-76
2022/02/13 09:46:34;;;;;;;;;;;3.00;99.90;;;;;;4995399;28;19999;-76
2022/02/13 09:49:01;;;;;;;;;;;3.00;99.90;;;;;;4998602;28;19909;-76
2022/02/13 09:51:29;;;;;;;;;;;3.10;99.90;;;;;;5000455;28;19917;-77
2022/02/13 09:53:54;;;;;;;;;;;3.30;99.90;;;;;;4997322;28;20007;-76
2022/02/13 09:56:20;;;;;;;;;;;3.50;99.90;;;;;;5000691;28;19913;-77
2022/02/13 09:58:45;;;;;;;;;;;3.60;99.90;;;;;;4994833;28;19948;-77
2022/02/13 10:01:11;;;;;;;;;;;3.80;99.90;;;;;;4998879;28;19927;-77
2022/02/13 10:03:41;;;;;;;;;;;3.90;99.90;;;;;;4999937;28;19913;-77
2022/02/13 10:06:09;;;;;;;;;;;4.10;99.90;;;;;;4996421;28;19917;-77
2022/02/13 10:08:39;;;;;;;;;;;4.10;99.90;;;;;;4998999;28;19958;-77
2022/02/13 10:11:07;;;;;;;;;;;4.30;99.90;;;;;;5012430;28;20642;-77
2022/02/13 10:13:45;;;;;;;;;;;4.40;99.90;;;;;;5001226;28;20465;-78
2022/02/13 10:16:12;;;;;;;;;;;4.50;99.90;;;;;;4997690;28;20305;-77
2022/02/13 10:18:44;;;;;;;;;;;4.70;99.90;;;;;;4999338;28;20896;-77
2022/02/13 10:21:10;;;;;;;;;;;4.70;99.90;;;;;;4996971;28;20362;-76
2022/02/13 10:23:36;;;;;;;;;;;4.80;99.90;;;;;;4994574;28;19924;-74
2022/02/13 10:26:01;;;;;;;;;;;5.00;99.90;;;;;;4998380;28;19913;-75
2022/02/13 10:28:27;;;;;;;;;;;5.10;99.90;;;;;;4997044;28;19913;-76
2022/02/13 10:30:53;;;;;;;;;;;5.30;99.90;;;;;;4996005;28;20830;-77
2022/02/13 10:33:23;;;;;;;;;;;5.40;99.90;;;;;;4999536;28;19918;-77
2022/02/13 10:36:00;;;;;;;;;;;5.40;99.90;;;;;;4994139;28;19913;-74
2022/02/13 10:38:30;;;;;;;;;;;5.60;99.90;;;;;;5014841;28;19917;-76
2022/02/13 10:41:14;;;;;;;;;;;5.70;99.90;;;;;;4998573;28;19953;-76
2022/02/13 10:43:49;;;;;;;;;;;5.80;99.90;;;;;;5002063;28;19920;-75
2022/02/13 10:46:15;;;;;;;;;;;5.90;99.90;;;;;;5011610;28;19917;-76
2022/02/13 10:48:41;;;;;;;;;;;5.90;99.90;;;;;;5009838;28;19910;-77
2022/02/13 10:51:07;;;;;;;;;;;5.90;99.90;;;;;;5017486;28;20378;-75
2022/02/13 10:53:32;;;;;;;;;;;6.00;99.90;;;;;;5002863;28;19921;-75
2022/02/13 10:56:00;;;;;;;;;;;6.10;99.90;;;;;;5003438;28;19921;-76
2022/02/13 10:58:26;;;;;;;;;;;6.10;99.90;;;;;;5004681;28;19917;-76
2022/02/13 11:00:55;;;;;;;;;;;6.10;99.90;;;;;;5001791;28;19921;-76
2022/02/13 11:03:21;;;;;;;;;;;6.10;99.90;;;;;;4999194;28;20385;-76
2022/02/13 11:05:48;;;;;;;;;;;6.20;99.90;;;;;;5005719;28;19913;-76
2022/02/13 11:08:15;;;;;;;;;;;6.30;99.90;;;;;;5021399;28;19924;-76
2022/02/13 11:10:42;;;;;;;;;;;6.30;99.90;;;;;;5007223;28;19963;-76
2022/02/13 11:13:09;;;;;;;;;;;6.50;99.90;;;;;;5010610;28;19921;-76
2022/02/13 11:15:37;;;;;;;;;;;6.50;99.90;;;;;;5009321;28;19936;-76
2022/02/13 11:18:02;;;;;;;;;;;6.50;99.90;;;;;;5013828;28;19918;-76
2022/02/13 11:20:28;;;;;;;;;;;6.60;99.90;;;;;;5027972;28;19917;-76
2022/02/13 11:22:54;;;;;;;;;;;6.60;99.90;;;;;;5012943;28;19913;-75
2022/02/13 11:25:38;;;;;;;;;;;6.70;99.90;;;;;;5011635;28;19936;-76
2022/02/13 11:28:03;;;;;;;;;;;6.50;99.90;;;;;;5012147;28;19924;-77
2022/02/13 11:30:49;;;;;;;;;;;6.50;99.90;;;;;;5010968;28;20011;-76
2022/02/13 11:33:30;;;;;;;;;;;6.60;99.90;;;;;;5017388;28;19936;-77
2022/02/13 11:36:00;;;;;;;;;;;6.70;99.90;;;;;;5033852;28;19928;-75
2022/02/13 11:38:55;;;;;;;;;;;6.90;99.90;;;;;;5027317;28;19940;-76
2022/02/13 11:41:40;;;;;;;;;;;6.90;99.90;;;;;;5016084;28;19988;-76
2022/02/13 11:44:06;;;;;;;;;;;7.00;99.90;;;;;;5028039;28;19909;-75
2022/02/13 11:46:34;;;;;;;;;;;7.10;99.40;;;;;;5025330;28;20297;-76
2022/02/13 11:49:02;;;;;;;;;;;7.10;98.90;;;;;;5038667;28;21283;-75
2022/02/13 11:51:46;;;;;;;;;;;7.20;99.80;;;;;;5021147;28;19917;-76
2022/02/13 11:54:30;;;;;;;;;;;6.80;99.40;;;;;;5040271;28;19913;-76
2022/02/13 11:57:06;;;;;;;;;;;7.00;99.90;;;;;;5019676;28;19924;-76
2022/02/13 11:59:53;;;;;;;;;;;7.20;98.30;;;;;;5018190;28;19917;-77
2022/02/13 12:02:31;;;;;;;;;;;7.30;98.50;;;;;;5022618;28;19916;-76
2022/02/13 12:05:02;;;;;;;;;;;7.20;99.90;;;;;;5019759;28;19909;-75
2022/02/13 12:07:35;;;;;;;;;;;7.10;99.90;;;;;;5003818;28;19925;-76
2022/02/13 12:10:00;;;;;;;;;;;7.10;99.00;;;;;;5005334;28;19918;-76
2022/02/13 12:12:28;;;;;;;;;;;7.20;99.90;;;;;;5005487;28;19920;-77
2022/02/13 12:14:54;;;;;;;;;;;7.40;97.90;;;;;;5015603;28;19918;-75
2022/02/13 12:17:27;;;;;;;;;;;7.30;98.30;;;;;;4999197;28;19914;-75
2022/02/13 12:20:12;;;;;;;;;;;7.40;98.40;;;;;;5014207;28;20336;-75
2022/02/13 12:22:39;;;;;;;;;;;7.50;97.10;;;;;;5014555;28;19909;-75
2022/02/13 12:25:05;;;;;;;;;;;7.60;96.30;;;;;;5002618;28;20305;-77
2022/02/13 12:27:31;;;;;;;;;;;7.70;97.70;;;;;;5025047;28;19897;-77
2022/02/13 12:30:08;;;;;;;;;;;7.70;95.40;;;;;;5030456;28;19898;-77
2022/02/13 12:32:34;;;;;;;;;;;7.70;96.20;;;;;;5030167;28;19936;-77
2022/02/13 12:35:05;;;;;;;;;;;7.70;97.50;;;;;;5010185;28;19913;-77
2022/02/13 12:37:50;;;;;;;;;;;7.90;97.10;;;;;;5002206;28;19949;-77
2022/02/13 12:40:16;;;;;;;;;;;7.80;97.50;;;;;;5001884;28;20009;-76
2022/02/13 12:42:43;;;;;;;;;;;7.80;93.90;;;;;;5000576;28;20170;-76
2022/02/13 12:45:13;;;;;;;;;;;7.80;95.00;;;;;;5000192;28;19971;-77
2022/02/13 12:47:40;;;;;;;;;;;7.70;95.90;;;;;;5001525;28;19933;-74
2022/02/13 12:50:07;;;;;;;;;;;7.80;95.50;;;;;;5001611;28;19926;-75
2022/02/13 12:52:33;;;;;;;;;;;7.80;95.10;;;;;;4998249;28;20392;-75
2022/02/13 12:55:02;;;;;;;;;;;7.70;95.70;;;;;;5000844;28;19909;-75
2022/02/13 12:57:28;;;;;;;;;;;7.70;95.30;;;;;;5015573;28;19913;-74
2022/02/13 12:59:53;;;;;;;;;;;7.70;93.10;;;;;;4997341;28;19963;-75
2022/02/13 13:02:23;;;;;;;;;;;7.90;94.20;;;;;;4997333;28;19961;-75
2022/02/13 13:04:50;;;;;;;;;;;7.90;93.50;;;;;;5000086;28;19918;-75
2022/02/13 13:07:23;;;;;;;;;;;7.90;92.70;;;;;;5015779;28;20375;-76
2022/02/13 13:09:49;;;;;;;;;;;7.80;94.30;;;;;;4998064;28;19921;-76
2022/02/13 13:12:18;;;;;;;;;;;7.90;92.80;;;;;;4997185;28;20530;-76
2022/02/13 13:14:57;;;;;;;;;;;7.90;94.10;;;;;;4995875;28;20529;-76
2022/02/13 13:17:23;;;;;;;;;;;8.00;92.30;;;;;;4995879;28;19993;-76
2022/02/13 13:19:48;;;;;;;;;;;8.00;92.60;;;;;;5000866;28;19913;-77
2022/02/13 13:22:23;;;;;;;;;;;8.20;93.90;;;;;;5003912;28;19940;-75
2022/02/13 13:24:50;;;;;;;;;;;8.20;93.30;;;;;;5003499;28;19921;-76
2022/02/13 13:27:20;;;;;;;;;;;8.20;94.50;;;;;;5004982;28;19936;-76
2022/02/13 13:29:47;;;;;;;;;;;8.40;92.60;;;;;;5005355;28;19917;-77
2022/02/13 13:32:19;;;;;;;;;;;8.30;91.40;;;;;;4999352;28;19921;-76
2022/02/13 13:34:46;;;;;;;;;;;8.30;93.70;;;;;;5006287;28;20525;-77
2022/02/13 13:37:34;;;;;;;;;;;8.30;92.60;;;;;;5005195;28;20251;-76
2022/02/13 13:40:22;;;;;;;;;;;8.40;94.80;;;;;;5000623;28;19920;-76
2022/02/13 13:42:54;;;;;;;;;;;8.50;92.90;;;;;;5005502;28;19927;-76
2022/02/13 13:45:20;;;;;;;;;;;8.50;90.00;;;;;;5004349;28;20298;-76
2022/02/13 13:47:46;;;;;;;;;;;8.50;90.70;;;;;;5001662;28;19924;-76
2022/02/13 13:50:14;;;;;;;;;;;8.60;85.70;;;;;;5017939;28;19924;-76
2022/02/13 13:52:39;;;;;;;;;;;8.60;90.00;;;;;;5002976;28;21015;-76
2022/02/13 13:55:05;;;;;;;;;;;8.70;90.50;;;;;;5002118;28;19951;-76
2022/02/13 13:57:30;;;;;;;;;;;8.70;83.00;;;;;;5001855;28;20286;-76
2022/02/13 13:59:56;;;;;;;;;;;8.80;78.80;;;;;;5012448;28;20297;-77
2022/02/13 14:02:23;;;;;;;;;;;8.80;79.70;;;;;;4998891;28;19917;-77